Time;durP1;ratioP1;P1;durP2;ratioP2;P2;SDS_P1;SDS_P2;PMS_P1;PMS_P2;Temp;Humidity;BMP_temperature;BMP_pressure;BME280_temperature;BME280_humidity;BME280_pressure;Samples;Min_cycle;Max_cycle;Signal;HPM_P1;HPM_P2
2022/10/10 00:01:50;;;;;;;9.88;4.03;;;;;;;;;;5086889;28;20034;-56
2022/10/10 00:04:15;;;;;;;8.93;4.57;;;;;;;;;;5086680;28;20051;-55
2022/10/10 00:06:40;;;;;;;10.02;3.97;;;;;;;;;;5090633;28;20019;-57
2022/10/10 00:09:07;;;;;;;8.40;4.22;;;;;;;;;;5089261;28;20525;-56
2022/10/10 00:11:33;;;;;;;7.05;4.40;;;;;;;;;;5085918;28;20031;-56
2022/10/10 00:13:58;;;;;;;8.13;4.25;;;;;;;;;;5086803;28;20020;-56
2022/10/10 00:16:23;;;;;;;6.93;3.88;;;;;;;;;;5086000;28;20013;-57
2022/10/10 00:18:49;;;;;;;11.48;5.30;;;;;;;;;;5093056;28;20024;-56
2022/10/10 00:21:14;;;;;;;10.32;5.85;;;;;;;;;;5096903;28;20068;-56
2022/10/10 00:23:39;;;;;;;17.60;10.05;;;;;;;;;;5091835;28;20012;-57
2022/10/10 00:26:05;;;;;;;30.00;19.00;;;;;;;;;;5089064;28;20036;-55
2022/10/10 00:28:30;;;;;;;20.55;11.57;;;;;;;;;;5092728;28;20024;-56
2022/10/10 00:30:55;;;;;;;15.70;8.20;;;;;;;;;;5087059;28;20020;-56
2022/10/10 00:33:20;;;;;;;10.23;4.72;;;;;;;;;;5081440;28;20024;-55
2022/10/10 00:35:46;;;;;;;10.43;5.05;;;;;;;;;;5083365;28;20028;-56
2022/10/10 00:38:12;;;;;;;11.63;5.78;;;;;;;;;;5093779;28;20016;-55
2022/10/10 00:40:47;;;;;;;8.00;4.85;;;;;;;;;;5093175;28;20032;-56
2022/10/10 00:43:12;;;;;;;8.30;4.80;;;;;;;;;;5091673;28;20044;-55
2022/10/10 00:45:38;;;;;;;9.18;4.82;;;;;;;;;;5084073;28;20058;-56
2022/10/10 00:48:12;;;;;;;8.25;4.70;;;;;;;;;;5089885;28;20512;-56
2022/10/10 00:50:39;;;;;;;9.95;5.20;;;;;;;;;;5089962;28;20103;-55
2022/10/10 00:53:04;;;;;;;11.70;4.82;;;;;;;;;;5084977;28;20135;-56
2022/10/10 00:55:30;;;;;;;17.02;5.22;;;;;;;;;;5088299;28;20037;-55
2022/10/10 00:57:55;;;;;;;7.75;4.70;;;;;;;;;;5091729;28;20023;-55
2022/10/10 01:00:20;;;;;;;11.60;5.32;;;;;;;;;;5087550;28;20495;-55
2022/10/10 01:02:45;;;;;;;9.23;5.30;;;;;;;;;;5089071;28;20330;-55
2022/10/10 01:05:11;;;;;;;10.23;5.75;;;;;;;;;;5087351;28;20052;-56
2022/10/10 01:07:36;;;;;;;16.08;9.15;;;;;;;;;;5082506;28;20048;-55
2022/10/10 01:10:05;;;;;;;20.95;11.10;;;;;;;;;;5083751;28;20051;-52
2022/10/10 01:12:49;;;;;;;25.17;14.95;;;;;;;;;;5086027;28;20138;-55
2022/10/10 01:15:20;;;;;;;26.60;13.88;;;;;;;;;;5093002;28;20691;-54
2022/10/10 01:17:59;;;;;;;9.25;5.78;;;;;;;;;;5080703;28;20108;-53
2022/10/10 01:20:31;;;;;;;9.85;5.25;;;;;;;;;;5085825;28;20111;-54
2022/10/10 01:23:06;;;;;;;8.27;4.95;;;;;;;;;;5087097;28;20024;-57
2022/10/10 01:25:34;;;;;;;8.30;5.28;;;;;;;;;;5089768;28;20031;-55
2022/10/10 01:28:01;;;;;;;10.10;5.28;;;;;;;;;;5090560;28;20020;-55
2022/10/10 01:30:26;;;;;;;7.78;5.07;;;;;;;;;;5082112;28;20016;-55
2022/10/10 01:33:07;;;;;;;10.75;5.20;;;;;;;;;;5084178;28;20016;-56
2022/10/10 01:35:39;;;;;;;10.77;5.60;;;;;;;;;;5083779;28;20050;-54
2022/10/10 01:38:23;;;;;;;9.90;6.00;;;;;;;;;;5087252;28;20052;-55
2022/10/10 01:41:07;;;;;;;12.93;5.85;;;;;;;;;;5087152;28;20020;-55
2022/10/10 01:43:32;;;;;;;13.05;6.38;;;;;;;;;;5090191;28;20484;-56
2022/10/10 01:45:57;;;;;;;13.77;6.80;;;;;;;;;;5084380;28;20107;-56
2022/10/10 01:48:28;;;;;;;11.90;7.20;;;;;;;;;;5098457;28;20109;-55
2022/10/10 01:51:12;;;;;;;12.27;6.88;;;;;;;;;;5090547;28;20032;-57
2022/10/10 01:53:38;;;;;;;11.20;6.13;;;;;;;;;;5093036;28;20016;-55
2022/10/10 01:56:14;;;;;;;11.80;5.65;;;;;;;;;;5089483;28;20576;-55
2022/10/10 01:58:45;;;;;;;12.63;6.50;;;;;;;;;;5081514;28;20259;-55
2022/10/10 02:01:13;;;;;;;14.07;6.32;;;;;;;;;;5094015;28;20051;-56
2022/10/10 02:03:40;;;;;;;11.25;6.00;;;;;;;;;;5087333;28;20063;-52
2022/10/10 02:06:06;;;;;;;10.23;6.22;;;;;;;;;;5090362;28;20028;-55
2022/10/10 02:08:35;;;;;;;10.35;5.82;;;;;;;;;;5085018;28;20028;-55
2022/10/10 02:11:02;;;;;;;12.10;6.00;;;;;;;;;;5087955;28;20436;-55
2022/10/10 02:13:31;;;;;;;11.18;5.60;;;;;;;;;;5086914;28;20042;-56
2022/10/10 02:15:56;;;;;;;13.80;6.00;;;;;;;;;;5093028;28;20016;-55
2022/10/10 02:18:22;;;;;;;9.90;6.18;;;;;;;;;;5095098;28;20016;-56
2022/10/10 02:20:47;;;;;;;10.10;6.32;;;;;;;;;;5092299;28;20145;-56
2022/10/10 02:23:13;;;;;;;13.38;6.15;;;;;;;;;;5085345;28;20024;-56
2022/10/10 02:25:38;;;;;;;11.75;6.50;;;;;;;;;;5091023;28;20185;-54
2022/10/10 02:28:22;;;;;;;14.80;6.15;;;;;;;;;;5088880;28;20438;-56
2022/10/10 02:30:48;;;;;;;11.55;6.43;;;;;;;;;;5082004;28;20077;-55
2022/10/10 02:33:14;;;;;;;11.05;6.10;;;;;;;;;;5084102;28;20032;-56
2022/10/10 02:35:40;;;;;;;11.75;6.50;;;;;;;;;;5084751;28;20020;-56
2022/10/10 02:38:06;;;;;;;10.95;6.18;;;;;;;;;;5099372;28;20039;-55
2022/10/10 02:40:31;;;;;;;11.77;6.75;;;;;;;;;;5090184;28;20760;-55
2022/10/10 02:42:58;;;;;;;11.75;6.18;;;;;;;;;;5082641;28;20339;-53
2022/10/10 02:45:23;;;;;;;9.70;5.65;;;;;;;;;;5078199;28;20054;-53
2022/10/10 02:47:49;;;;;;;10.80;6.07;;;;;;;;;;5089983;28;20052;-55
2022/10/10 02:50:14;;;;;;;8.82;5.72;;;;;;;;;;5093525;28;20085;-55
2022/10/10 02:52:39;;;;;;;10.10;6.22;;;;;;;;;;5091632;28;20020;-55
2022/10/10 02:55:05;;;;;;;11.35;5.95;;;;;;;;;;5094658;28;20069;-56
2022/10/10 02:57:30;;;;;;;10.68;6.32;;;;;;;;;;5067972;28;20039;-56
2022/10/10 02:59:56;;;;;;;12.52;6.80;;;;;;;;;;5087428;28;20028;-55
2022/10/10 03:02:21;;;;;;;17.27;7.47;;;;;;;;;;5074907;28;20126;-55
2022/10/10 03:04:46;;;;;;;11.73;6.63;;;;;;;;;;5086829;28;20162;-55
2022/10/10 03:07:11;;;;;;;9.43;6.45;;;;;;;;;;5099645;28;20458;-55
2022/10/10 03:09:36;;;;;;;18.30;9.80;;;;;;;;;;5088115;28;20462;-55
2022/10/10 03:12:02;;;;;;;15.73;9.25;;;;;;;;;;5086744;28;20019;-55
2022/10/10 03:14:27;;;;;;;12.02;7.35;;;;;;;;;;5087848;28;20032;-55
2022/10/10 03:16:52;;;;;;;11.30;6.68;;;;;;;;;;5081987;28;20505;-55
2022/10/10 03:19:18;;;;;;;10.20;5.97;;;;;;;;;;5094674;28;20026;-55
2022/10/10 03:21:43;;;;;;;11.07;6.07;;;;;;;;;;5080305;28;20036;-56
2022/10/10 03:24:08;;;;;;;10.93;6.10;;;;;;;;;;5076770;28;20028;-55
2022/10/10 03:26:33;;;;;;;11.75;7.05;;;;;;;;;;5087275;28;20023;-54
2022/10/10 03:29:00;;;;;;;10.73;6.68;;;;;;;;;;5091007;28;20036;-56
2022/10/10 03:31:25;;;;;;;12.88;6.95;;;;;;;;;;5086509;28;20023;-60
2022/10/10 03:33:50;;;;;;;14.00;7.03;;;;;;;;;;5084390;28;20020;-56
2022/10/10 03:36:15;;;;;;;16.95;7.53;;;;;;;;;;5076593;28;20483;-56
2022/10/10 03:38:41;;;;;;;10.13;6.38;;;;;;;;;;5092469;28;20118;-54
2022/10/10 03:41:06;;;;;;;12.55;7.28;;;;;;;;;;5083309;28;20059;-55
2022/10/10 03:43:31;;;;;;;10.63;6.72;;;;;;;;;;5084195;28;20050;-56
2022/10/10 03:45:56;;;;;;;10.40;6.75;;;;;;;;;;5082875;28;20060;-56
2022/10/10 03:48:22;;;;;;;11.05;7.10;;;;;;;;;;5089417;28;20101;-54
2022/10/10 03:50:47;;;;;;;10.63;6.93;;;;;;;;;;5090074;28;20031;-55
2022/10/10 03:53:12;;;;;;;14.07;7.88;;;;;;;;;;5092951;28;20065;-55
2022/10/10 03:55:38;;;;;;;13.95;7.25;;;;;;;;;;5087385;28;20029;-56
2022/10/10 03:58:03;;;;;;;12.52;7.45;;;;;;;;;;5088426;28;20147;-55
2022/10/10 04:00:29;;;;;;;15.93;7.95;;;;;;;;;;5079724;28;20517;-55
2022/10/10 04:02:54;;;;;;;15.77;8.57;;;;;;;;;;5092187;28;20016;-56
2022/10/10 04:05:19;;;;;;;17.35;8.88;;;;;;;;;;5094009;28;20040;-56
2022/10/10 04:07:44;;;;;;;14.32;8.20;;;;;;;;;;5077665;28;20017;-53
2022/10/10 04:10:09;;;;;;;15.00;8.30;;;;;;;;;;5090275;28;20043;-55
2022/10/10 04:12:35;;;;;;;16.90;8.18;;;;;;;;;;5094486;28;20038;-55
2022/10/10 04:15:00;;;;;;;13.63;6.90;;;;;;;;;;5082962;28;20318;-55
2022/10/10 04:17:25;;;;;;;11.65;7.25;;;;;;;;;;5084333;28;20024;-54
2022/10/10 04:19:50;;;;;;;14.80;8.18;;;;;;;;;;5093139;28;20102;-55
2022/10/10 04:22:16;;;;;;;13.80;7.18;;;;;;;;;;5093248;28;20023;-56
2022/10/10 04:24:41;;;;;;;18.17;7.85;;;;;;;;;;5086523;28;20424;-55
2022/10/10 04:27:06;;;;;;;14.65;7.38;;;;;;;;;;5090660;28;20119;-56
2022/10/10 04:29:31;;;;;;;16.95;8.35;;;;;;;;;;5090004;28;20070;-55
2022/10/10 04:31:57;;;;;;;13.55;7.30;;;;;;;;;;5093841;28;20094;-57
2022/10/10 04:34:22;;;;;;;12.45;7.88;;;;;;;;;;5088013;28;20107;-55
2022/10/10 04:36:47;;;;;;;16.70;7.57;;;;;;;;;;5084664;28;20020;-55
2022/10/10 04:39:12;;;;;;;15.68;8.10;;;;;;;;;;5089595;28;20023;-54
2022/10/10 04:41:37;;;;;;;13.57;7.93;;;;;;;;;;5085800;28;20034;-55
2022/10/10 04:44:03;;;;;;;13.95;7.93;;;;;;;;;;5079874;28;20029;-55
2022/10/10 04:46:28;;;;;;;14.00;7.13;;;;;;;;;;5081181;28;20083;-55
2022/10/10 04:48:53;;;;;;;12.60;7.88;;;;;;;;;;5088697;28;20122;-55
2022/10/10 04:51:18;;;;;;;21.77;8.60;;;;;;;;;;5084665;28;20381;-55
2022/10/10 04:53:44;;;;;;;19.40;8.80;;;;;;;;;;5095015;28;20114;-56
2022/10/10 04:56:09;;;;;;;12.70;7.90;;;;;;;;;;5093657;28;20292;-55
2022/10/10 04:58:34;;;;;;;18.05;10.00;;;;;;;;;;5094566;28;20020;-56
2022/10/10 05:00:59;;;;;;;17.77;8.30;;;;;;;;;;5089021;28;20046;-56
2022/10/10 05:03:25;;;;;;;18.58;9.43;;;;;;;;;;5090403;28;20024;-56
2022/10/10 05:05:50;;;;;;;19.45;9.32;;;;;;;;;;5090055;28;20059;-56
2022/10/10 05:08:15;;;;;;;12.40;8.18;;;;;;;;;;5091611;28;20032;-57
2022/10/10 05:10:41;;;;;;;13.13;8.32;;;;;;;;;;5084903;28;20107;-56
2022/10/10 05:13:07;;;;;;;23.15;8.80;;;;;;;;;;5091330;28;20128;-56
2022/10/10 05:15:35;;;;;;;18.48;8.90;;;;;;;;;;5092948;28;20023;-53
2022/10/10 05:18:00;;;;;;;13.23;8.23;;;;;;;;;;5086357;28;20107;-56
2022/10/10 05:20:26;;;;;;;13.63;7.82;;;;;;;;;;5089316;28;20165;-56
2022/10/10 05:22:51;;;;;;;16.35;9.20;;;;;;;;;;5090393;28;20028;-56
2022/10/10 05:25:16;;;;;;;18.48;9.90;;;;;;;;;;5086476;28;20051;-55
2022/10/10 05:27:42;;;;;;;23.08;10.55;;;;;;;;;;5089888;28;20032;-55
2022/10/10 05:30:07;;;;;;;32.15;12.15;;;;;;;;;;5094249;28;20036;-57
2022/10/10 05:32:32;;;;;;;30.50;14.75;;;;;;;;;;5089283;28;20023;-55
2022/10/10 05:34:57;;;;;;;35.22;14.52;;;;;;;;;;5093729;28;20496;-55
2022/10/10 05:37:23;;;;;;;21.95;11.48;;;;;;;;;;5087941;28;20039;-56
2022/10/10 05:39:48;;;;;;;25.77;11.80;;;;;;;;;;5087322;28;20012;-54
2022/10/10 05:42:13;;;;;;;24.02;10.48;;;;;;;;;;5090506;28;20077;-55
2022/10/10 05:44:42;;;;;;;18.17;9.93;;;;;;;;;;5075046;28;20143;-55
2022/10/10 05:47:07;;;;;;;17.98;9.77;;;;;;;;;;5095265;28;20027;-55
2022/10/10 05:49:32;;;;;;;17.95;9.02;;;;;;;;;;5085218;28;20268;-54
2022/10/10 05:51:57;;;;;;;14.40;7.97;;;;;;;;;;5082592;28;20012;-53
2022/10/10 05:54:22;;;;;;;16.90;8.30;;;;;;;;;;5100255;28;20037;-55
2022/10/10 05:56:48;;;;;;;16.65;9.55;;;;;;;;;;5093933;28;20020;-52
2022/10/10 05:59:13;;;;;;;15.57;8.30;;;;;;;;;;5089346;28;20031;-55
2022/10/10 06:01:38;;;;;;;16.23;8.82;;;;;;;;;;5088448;28;20020;-55
2022/10/10 06:04:03;;;;;;;16.23;8.98;;;;;;;;;;5087731;28;20083;-55
2022/10/10 06:06:29;;;;;;;14.60;9.23;;;;;;;;;;5088371;28;20054;-54
2022/10/10 06:08:54;;;;;;;20.90;10.65;;;;;;;;;;5083584;28;21196;-55
2022/10/10 06:11:22;;;;;;;19.67;9.38;;;;;;;;;;5083337;28;20028;-54
2022/10/10 06:13:49;;;;;;;15.18;9.70;;;;;;;;;;5095042;28;20015;-54
2022/10/10 06:16:15;;;;;;;20.73;8.93;;;;;;;;;;5080873;28;20478;-57
2022/10/10 06:18:40;;;;;;;15.82;9.27;;;;;;;;;;5080954;28;20042;-57
2022/10/10 06:21:06;;;;;;;18.35;8.60;;;;;;;;;;5074208;28;20526;-55
2022/10/10 06:23:31;;;;;;;16.75;8.95;;;;;;;;;;5089601;28;20024;-55
2022/10/10 06:25:56;;;;;;;18.90;8.55;;;;;;;;;;5084865;28;20019;-56
2022/10/10 06:28:21;;;;;;;13.80;8.00;;;;;;;;;;5090414;28;20358;-56
2022/10/10 06:30:47;;;;;;;16.77;8.35;;;;;;;;;;5085407;28;20423;-56
2022/10/10 06:33:13;;;;;;;14.10;7.80;;;;;;;;;;5081920;28;20042;-55
2022/10/10 06:35:42;;;;;;;18.95;10.07;;;;;;;;;;5076562;28;20021;-56
2022/10/10 06:38:10;;;;;;;15.85;9.98;;;;;;;;;;5082492;28;20111;-57
2022/10/10 06:40:35;;;;;;;13.63;8.75;;;;;;;;;;5084482;28;20046;-56
2022/10/10 06:43:00;;;;;;;12.00;7.57;;;;;;;;;;5073831;28;20647;-55
2022/10/10 06:45:26;;;;;;;15.38;9.50;;;;;;;;;;5082206;28;20103;-58
2022/10/10 06:47:51;;;;;;;21.27;10.63;;;;;;;;;;5076413;28;20132;-57
2022/10/10 06:50:16;;;;;;;17.98;9.45;;;;;;;;;;5077765;28;20043;-56
2022/10/10 06:52:41;;;;;;;17.25;10.40;;;;;;;;;;5078476;28;20024;-54
2022/10/10 06:55:07;;;;;;;14.30;8.77;;;;;;;;;;5083046;28;20035;-56
2022/10/10 06:57:32;;;;;;;13.30;8.57;;;;;;;;;;5082326;28;20383;-56
2022/10/10 06:59:57;;;;;;;14.02;8.32;;;;;;;;;;5089245;28;20063;-56
2022/10/10 07:02:26;;;;;;;13.55;8.40;;;;;;;;;;5089752;28;20055;-54
2022/10/10 07:04:51;;;;;;;12.10;8.40;;;;;;;;;;5071982;28;20045;-55
2022/10/10 07:07:16;;;;;;;18.10;10.80;;;;;;;;;;5080500;28;20042;-55
2022/10/10 07:09:41;;;;;;;19.63;11.60;;;;;;;;;;5072771;28;20575;-56
2022/10/10 07:12:07;;;;;;;19.35;10.57;;;;;;;;;;5075046;28;20462;-56
2022/10/10 07:14:32;;;;;;;11.02;7.22;;;;;;;;;;5080698;28;20526;-57
2022/10/10 07:16:57;;;;;;;16.33;9.82;;;;;;;;;;5073937;28;20069;-57
2022/10/10 07:19:23;;;;;;;11.63;7.10;;;;;;;;;;5071785;28;20502;-55
2022/10/10 07:21:49;;;;;;;18.45;9.13;;;;;;;;;;5075603;28;20418;-54
2022/10/10 07:24:14;;;;;;;14.00;9.15;;;;;;;;;;5096238;28;20026;-55
2022/10/10 07:26:40;;;;;;;17.90;10.45;;;;;;;;;;5091438;28;20016;-56
2022/10/10 07:29:05;;;;;;;12.80;8.40;;;;;;;;;;5099912;28;20150;-54
2022/10/10 07:31:30;;;;;;;13.70;7.32;;;;;;;;;;5076368;28;20031;-55
2022/10/10 07:33:56;;;;;;;8.82;6.50;;;;;;;;;;5080184;28;20236;-54
2022/10/10 07:36:21;;;;;;;15.68;8.73;;;;;;;;;;5076990;28;20125;-54
2022/10/10 07:38:53;;;;;;;15.27;9.15;;;;;;;;;;5081032;28;20012;-54
2022/10/10 07:41:18;;;;;;;14.65;8.50;;;;;;;;;;5073882;28;20024;-55
2022/10/10 07:43:44;;;;;;;12.65;7.90;;;;;;;;;;5088334;28;20050;-57
2022/10/10 07:46:13;;;;;;;13.32;7.40;;;;;;;;;;5077137;28;20062;-55
2022/10/10 07:48:38;;;;;;;11.15;7.25;;;;;;;;;;5074474;28;20064;-57
2022/10/10 07:51:07;;;;;;;14.98;7.63;;;;;;;;;;5077731;28;20115;-53
2022/10/10 07:53:32;;;;;;;8.82;6.40;;;;;;;;;;5089297;28;20020;-54
2022/10/10 07:55:57;;;;;;;8.25;5.43;;;;;;;;;;5093099;28;20064;-55
2022/10/10 07:58:22;;;;;;;8.48;5.72;;;;;;;;;;5078074;28;20095;-55
2022/10/10 08:00:47;;;;;;;11.27;5.30;;;;;;;;;;5073574;28;20165;-57
2022/10/10 08:03:13;;;;;;;9.18;5.50;;;;;;;;;;5081363;28;20031;-56
2022/10/10 08:05:41;;;;;;;7.45;4.90;;;;;;;;;;5087839;28;20048;-57
2022/10/10 08:08:06;;;;;;;9.07;5.05;;;;;;;;;;5080004;28;20020;-53
2022/10/10 08:10:32;;;;;;;8.82;5.22;;;;;;;;;;5078755;28;20024;-57
2022/10/10 08:12:57;;;;;;;10.77;4.95;;;;;;;;;;5079022;28;20466;-54
2022/10/10 08:15:22;;;;;;;9.10;4.70;;;;;;;;;;5070920;28;20069;-56
2022/10/10 08:17:47;;;;;;;8.88;4.90;;;;;;;;;;5084643;28;20027;-56
2022/10/10 08:20:13;;;;;;;10.65;4.40;;;;;;;;;;5089375;28;20019;-54
2022/10/10 08:22:38;;;;;;;11.20;5.07;;;;;;;;;;5084276;28;20025;-52
2022/10/10 08:25:04;;;;;;;10.88;5.13;;;;;;;;;;5091980;28;20026;-55
2022/10/10 08:27:29;;;;;;;9.52;4.30;;;;;;;;;;5088394;28;20077;-55
2022/10/10 08:29:54;;;;;;;9.05;4.15;;;;;;;;;;5083255;28;20023;-55
2022/10/10 08:32:19;;;;;;;7.70;4.25;;;;;;;;;;5095478;27;20011;-54
2022/10/10 08:34:45;;;;;;;8.00;4.28;;;;;;;;;;5086948;28;20465;-55
2022/10/10 08:37:10;;;;;;;7.43;4.40;;;;;;;;;;5097206;28;20027;-55
2022/10/10 08:39:35;;;;;;;9.10;4.20;;;;;;;;;;5088807;28;20063;-54
2022/10/10 08:42:01;;;;;;;7.70;4.65;;;;;;;;;;5087697;28;20017;-53
2022/10/10 08:44:31;;;;;;;6.32;3.92;;;;;;;;;;5090133;28;20024;-56
2022/10/10 08:46:59;;;;;;;9.48;4.32;;;;;;;;;;5078797;28;20450;-55
2022/10/10 08:49:30;;;;;;;9.02;3.40;;;;;;;;;;5094543;28;20505;-54
2022/10/10 08:51:58;;;;;;;7.13;3.88;;;;;;;;;;5083134;28;20381;-54
2022/10/10 08:54:25;;;;;;;10.25;4.30;;;;;;;;;;5068932;28;20473;-55
2022/10/10 08:56:50;;;;;;;6.38;3.60;;;;;;;;;;5085933;28;20374;-54
2022/10/10 08:59:23;;;;;;;8.80;3.83;;;;;;;;;;5081097;28;20034;-53
2022/10/10 09:01:49;;;;;;;7.05;3.97;;;;;;;;;;5089811;28;20032;-56
2022/10/10 09:04:15;;;;;;;10.60;4.40;;;;;;;;;;5086241;28;20063;-56
2022/10/10 09:06:58;;;;;;;9.50;3.60;;;;;;;;;;5077861;28;20081;-55
2022/10/10 09:09:36;;;;;;;10.13;3.92;;;;;;;;;;5080746;28;20036;-55
2022/10/10 09:12:10;;;;;;;7.10;3.92;;;;;;;;;;5091212;28;20021;-56
2022/10/10 09:14:40;;;;;;;8.18;3.75;;;;;;;;;;5080621;28;20012;-56
2022/10/10 09:17:11;;;;;;;6.97;3.55;;;;;;;;;;5089873;28;20020;-55
2022/10/10 09:19:52;;;;;;;5.82;3.17;;;;;;;;;;5085237;28;20512;-54
2022/10/10 09:22:19;;;;;;;5.85;3.60;;;;;;;;;;5083275;28;20412;-52
2022/10/10 09:24:46;;;;;;;7.93;3.75;;;;;;;;;;5085489;28;20020;-56
2022/10/10 09:27:13;;;;;;;5.95;3.55;;;;;;;;;;5077902;28;20036;-54
2022/10/10 09:29:38;;;;;;;17.05;6.25;;;;;;;;;;5088531;28;20058;-54
2022/10/10 09:32:06;;;;;;;7.10;3.35;;;;;;;;;;5085917;28;20077;-57
2022/10/10 09:34:31;;;;;;;5.85;3.60;;;;;;;;;;5089622;28;20051;-55
2022/10/10 09:36:59;;;;;;;7.60;4.05;;;;;;;;;;5088204;28;20421;-57
2022/10/10 09:39:27;;;;;;;8.63;3.78;;;;;;;;;;5092143;28;20027;-57
2022/10/10 09:41:58;;;;;;;11.52;3.95;;;;;;;;;;5090631;28;20039;-56
2022/10/10 09:44:24;;;;;;;8.13;4.35;;;;;;;;;;5087046;28;20025;-57
2022/10/10 09:46:49;;;;;;;10.13;4.18;;;;;;;;;;5076070;28;20507;-56
2022/10/10 09:49:15;;;;;;;7.85;3.90;;;;;;;;;;5089404;28;20031;-56
2022/10/10 09:51:40;;;;;;;7.63;3.55;;;;;;;;;;5076448;28;20016;-55
2022/10/10 09:54:06;;;;;;;7.35;4.00;;;;;;;;;;5083138;28;20576;-56
2022/10/10 09:56:33;;;;;;;8.38;3.97;;;;;;;;;;5087707;28;20017;-53
2022/10/10 09:58:59;;;;;;;7.53;3.67;;;;;;;;;;5081577;28;20526;-55
2022/10/10 10:01:25;;;;;;;8.02;3.85;;;;;;;;;;5089194;28;20036;-55
2022/10/10 10:04:05;;;;;;;9.23;3.97;;;;;;;;;;5087555;28;20119;-56
2022/10/10 10:06:30;;;;;;;11.95;3.85;;;;;;;;;;5082180;28;20031;-56
2022/10/10 10:08:56;;;;;;;8.43;4.38;;;;;;;;;;5097445;28;20032;-55
2022/10/10 10:11:28;;;;;;;11.07;3.83;;;;;;;;;;5088469;28;20020;-56
2022/10/10 10:13:54;;;;;;;6.38;3.67;;;;;;;;;;5089524;28;20070;-56
2022/10/10 10:16:19;;;;;;;6.07;3.80;;;;;;;;;;5088962;28;20040;-56
2022/10/10 10:18:45;;;;;;;11.05;4.22;;;;;;;;;;5089585;28;20043;-57
2022/10/10 10:21:12;;;;;;;10.02;3.70;;;;;;;;;;5088764;28;20039;-54
2022/10/10 10:23:51;;;;;;;8.13;4.20;;;;;;;;;;5093114;28;20024;-54
2022/10/10 10:26:16;;;;;;;8.73;3.83;;;;;;;;;;5088100;28;20028;-57
2022/10/10 10:28:42;;;;;;;7.75;3.88;;;;;;;;;;5094109;28;20414;-53
2022/10/10 10:31:12;;;;;;;8.50;3.60;;;;;;;;;;5095539;28;20115;-55
2022/10/10 10:33:43;;;;;;;7.70;3.63;;;;;;;;;;5092268;28;20109;-54
2022/10/10 10:36:18;;;;;;;9.43;3.80;;;;;;;;;;5091532;28;20078;-53
2022/10/10 10:38:49;;;;;;;9.18;3.70;;;;;;;;;;5097283;28;20024;-55
2022/10/10 10:41:17;;;;;;;7.82;3.50;;;;;;;;;;5087609;28;20114;-54
2022/10/10 10:43:46;;;;;;;12.70;3.63;;;;;;;;;;5081978;28;20027;-54
2022/10/10 10:46:11;;;;;;;9.13;3.80;;;;;;;;;;5096228;28;20479;-53
2022/10/10 10:48:43;;;;;;;11.38;3.80;;;;;;;;;;5087160;28;20028;-55
2022/10/10 10:51:26;;;;;;;5.88;3.80;;;;;;;;;;5091294;28;20032;-55
2022/10/10 10:53:52;;;;;;;10.02;3.58;;;;;;;;;;5086113;28;20042;-54
2022/10/10 10:56:53;;;;;;;6.53;3.22;;;;;;;;;;5090292;28;20458;-55
2022/10/10 10:59:36;;;;;;;9.02;3.60;;;;;;;;;;5012435;28;20781;-54
2022/10/10 11:02:20;;;;;;;14.80;3.67;;;;;;;;;;5082029;28;20089;-55
2022/10/10 11:05:04;;;;;;;8.30;3.08;;;;;;;;;;5088478;28;20071;-55
2022/10/10 11:07:31;;;;;;;9.05;4.00;;;;;;;;;;5086133;28;20020;-55
2022/10/10 11:10:00;;;;;;;6.30;3.33;;;;;;;;;;5086308;28;20028;-55
2022/10/10 11:12:44;;;;;;;7.97;3.40;;;;;;;;;;5088042;28;20015;-54
2022/10/10 11:15:10;;;;;;;10.52;3.65;;;;;;;;;;5088316;28;20031;-54
2022/10/10 11:17:39;;;;;;;11.98;3.50;;;;;;;;;;5082876;28;20486;-55
2022/10/10 11:20:04;;;;;;;8.85;3.22;;;;;;;;;;5085903;28;20127;-55
2022/10/10 11:22:34;;;;;;;9.60;3.25;;;;;;;;;;5090110;28;20096;-54
2022/10/10 11:24:59;;;;;;;6.78;3.00;;;;;;;;;;5086789;28;20033;-55
2022/10/10 11:27:27;;;;;;;9.32;2.83;;;;;;;;;;5091273;28;20375;-54
2022/10/10 11:29:52;;;;;;;9.95;3.13;;;;;;;;;;5087176;28;20186;-55
2022/10/10 11:32:23;;;;;;;7.57;3.40;;;;;;;;;;5084829;28;20457;-54
2022/10/10 11:35:02;;;;;;;8.30;3.60;;;;;;;;;;5087725;28;20385;-55
2022/10/10 11:37:28;;;;;;;11.93;3.67;;;;;;;;;;5087261;28;20023;-54
2022/10/10 11:39:54;;;;;;;8.60;3.53;;;;;;;;;;5083237;28;20046;-55
2022/10/10 11:42:26;;;;;;;12.65;3.58;;;;;;;;;;5082725;28;20242;-54
2022/10/10 11:45:05;;;;;;;7.03;3.10;;;;;;;;;;5083711;28;20386;-55
2022/10/10 11:47:34;;;;;;;8.95;3.40;;;;;;;;;;5097480;27;20019;-54
2022/10/10 11:50:19;;;;;;;7.28;3.25;;;;;;;;;;5087277;28;20032;-54
2022/10/10 11:52:47;;;;;;;7.15;3.15;;;;;;;;;;5084457;28;20393;-55
2022/10/10 11:55:21;;;;;;;8.48;3.53;;;;;;;;;;5080728;28;20031;-54
2022/10/10 11:58:04;;;;;;;8.43;3.80;;;;;;;;;;5076125;28;20103;-54
2022/10/10 12:00:40;;;;;;;8.80;3.60;;;;;;;;;;5086613;28;20016;-55
2022/10/10 12:03:06;;;;;;;9.15;3.22;;;;;;;;;;5090087;28;20026;-55
2022/10/10 12:05:37;;;;;;;7.57;3.03;;;;;;;;;;5085749;28;20050;-55
2022/10/10 12:08:22;;;;;;;7.72;3.38;;;;;;;;;;5089386;28;20016;-54
2022/10/10 12:10:47;;;;;;;8.55;3.20;;;;;;;;;;5089543;28;20111;-55
2022/10/10 12:13:31;;;;;;;6.53;2.92;;;;;;;;;;5085814;28;20458;-56
2022/10/10 12:15:56;;;;;;;9.57;3.25;;;;;;;;;;5088788;28;20047;-56
2022/10/10 12:18:23;;;;;;;8.73;3.33;;;;;;;;;;5090872;28;20707;-56
2022/10/10 12:20:48;;;;;;;8.82;3.35;;;;;;;;;;5079954;28;20020;-56
2022/10/10 12:23:13;;;;;;;12.25;3.40;;;;;;;;;;5091860;28;20046;-57
2022/10/10 12:25:41;;;;;;;9.55;3.22;;;;;;;;;;5082011;28;20051;-55
2022/10/10 12:28:12;;;;;;;7.10;2.85;;;;;;;;;;5087327;28;20061;-55
2022/10/10 12:30:58;;;;;;;11.40;3.00;;;;;;;;;;5086089;28;20535;-55
2022/10/10 12:33:32;;;;;;;12.38;3.35;;;;;;;;;;5061022;28;20038;-55
2022/10/10 12:36:15;;;;;;;5.90;2.85;;;;;;;;;;5093134;28;20454;-56
2022/10/10 12:38:42;;;;;;;14.43;3.40;;;;;;;;;;5080829;28;20020;-56
2022/10/10 12:41:17;;;;;;;12.57;3.65;;;;;;;;;;5066676;28;20040;-56
2022/10/10 12:43:50;;;;;;;12.07;3.05;;;;;;;;;;5084985;28;20027;-56
2022/10/10 12:46:16;;;;;;;9.32;3.58;;;;;;;;;;5085193;28;20124;-56
2022/10/10 12:48:41;;;;;;;8.43;3.05;;;;;;;;;;5082794;28;20518;-55
2022/10/10 12:51:12;;;;;;;10.38;3.10;;;;;;;;;;5086562;28;20180;-55
2022/10/10 12:53:37;;;;;;;10.05;3.00;;;;;;;;;;5086415;28;20019;-55
2022/10/10 12:56:03;;;;;;;10.20;3.22;;;;;;;;;;5079663;28;20374;-54
2022/10/10 12:58:38;;;;;;;10.52;3.20;;;;;;;;;;5077611;28;20023;-55
2022/10/10 13:01:05;;;;;;;10.48;3.63;;;;;;;;;;5078964;28;20020;-54
2022/10/10 13:03:31;;;;;;;9.68;3.58;;;;;;;;;;5080971;28;20106;-54
2022/10/10 13:05:57;;;;;;;11.85;3.53;;;;;;;;;;5077460;28;20223;-55
2022/10/10 13:08:23;;;;;;;12.30;3.58;;;;;;;;;;5082790;28;20431;-55
2022/10/10 13:11:00;;;;;;;9.70;3.20;;;;;;;;;;5086606;28;20106;-54
2022/10/10 13:13:26;;;;;;;13.43;3.80;;;;;;;;;;5078919;28;20027;-55
2022/10/10 13:15:55;;;;;;;11.85;3.33;;;;;;;;;;5080764;28;20024;-54
2022/10/10 13:18:37;;;;;;;9.07;3.10;;;;;;;;;;5086608;28;20034;-55
2022/10/10 13:21:02;;;;;;;12.73;3.50;;;;;;;;;;5086777;28;20020;-54
2022/10/10 13:23:28;;;;;;;10.60;3.47;;;;;;;;;;5088181;28;20237;-54
2022/10/10 13:25:53;;;;;;;10.88;3.45;;;;;;;;;;5081935;28;20020;-55
2022/10/10 13:28:19;;;;;;;15.45;3.50;;;;;;;;;;5089192;28;20028;-56
2022/10/10 13:30:44;;;;;;;14.38;2.97;;;;;;;;;;5084981;28;20028;-55
2022/10/10 13:33:19;;;;;;;15.32;2.90;;;;;;;;;;5088342;28;20527;-55
2022/10/10 13:35:44;;;;;;;10.38;2.90;;;;;;;;;;5089880;28;20024;-55
2022/10/10 13:38:09;;;;;;;18.42;3.90;;;;;;;;;;5079921;28;20039;-55
2022/10/10 13:40:35;;;;;;;21.55;3.75;;;;;;;;;;5076602;28;20484;-56
2022/10/10 13:43:00;;;;;;;22.25;3.80;;;;;;;;;;5085566;28;20031;-54
2022/10/10 13:45:28;;;;;;;14.88;2.83;;;;;;;;;;5083192;28;20486;-55
2022/10/10 13:47:59;;;;;;;18.33;3.10;;;;;;;;;;5095775;28;20150;-55
2022/10/10 13:50:29;;;;;;;17.15;3.88;;;;;;;;;;5085789;28;20137;-55
2022/10/10 13:53:13;;;;;;;16.50;3.25;;;;;;;;;;5086563;28;20166;-55
2022/10/10 13:55:39;;;;;;;17.35;2.97;;;;;;;;;;5085077;28;20031;-55
2022/10/10 13:58:05;;;;;;;18.85;3.70;;;;;;;;;;5087694;28;20439;-54
2022/10/10 14:00:31;;;;;;;17.27;3.20;;;;;;;;;;5092409;28;20052;-55
2022/10/10 14:02:57;;;;;;;16.38;3.55;;;;;;;;;;5089812;28;20027;-55
2022/10/10 14:05:26;;;;;;;17.77;3.08;;;;;;;;;;5093133;28;20033;-54
2022/10/10 14:07:52;;;;;;;13.82;3.00;;;;;;;;;;5086079;28;20035;-55
2022/10/10 14:10:18;;;;;;;14.13;3.30;;;;;;;;;;5087625;28;20032;-55
2022/10/10 14:12:50;;;;;;;17.77;3.10;;;;;;;;;;5088784;28;20031;-54
2022/10/10 14:15:34;;;;;;;21.20;3.75;;;;;;;;;;5083859;28;20104;-55
2022/10/10 14:17:59;;;;;;;16.48;3.17;;;;;;;;;;5089690;28;20046;-55
2022/10/10 14:20:24;;;;;;;13.63;3.08;;;;;;;;;;5085934;28;20480;-55
2022/10/10 14:22:50;;;;;;;20.67;3.85;;;;;;;;;;5087365;28;20027;-54
2022/10/10 14:25:15;;;;;;;14.93;3.38;;;;;;;;;;5082676;28;20023;-54
2022/10/10 14:27:40;;;;;;;15.65;3.47;;;;;;;;;;5081987;28;20023;-55
2022/10/10 14:30:06;;;;;;;20.90;4.68;;;;;;;;;;5078352;28;20055;-55
2022/10/10 14:32:31;;;;;;;13.48;3.20;;;;;;;;;;5077847;28;20402;-54
2022/10/10 14:34:56;;;;;;;13.27;3.08;;;;;;;;;;5080425;28;20024;-57
2022/10/10 14:37:22;;;;;;;12.18;2.80;;;;;;;;;;5078534;28;20027;-53